SLLP/LPB METAR and TAF weather

Enter ICAO airport designator
Station Type Date Time Source
SLLP METAR 2019/07/15 20:00 UTC NOAA

SLLP 152000Z 24012KT 9999 FEW023 14/M14 Q1035


Station Type Date Time Source
SLLP Decoded METAR 2019/07/15 20:00 UTC NOAA

La Paz / Alto, Bolivia (SLLP) 16-31S 068-11W 4038M
Jul 15, 2019 - 04:00 PM EDT / 2019.07.15 2000 UTC
Wind: from the WSW (240 degrees) at 14 MPH (12 KT):0
Visibility: greater than 7 mile(s):0
Sky conditions: mostly clear
Temperature: 57 F (14 C)
Dew Point: 6 F (-14 C)
Relative Humidity: 12%
Pressure (altimeter): 30.56 in. Hg (1035 hPa)
ob: SLLP 152000Z 24012KT 9999 FEW023 14/M14 Q1035
cycle: 20

Station Type Date Time Source
SLLP TAF 2019/07/15 18:06 UTC NOAA

TAF SLLP 151650Z 1518/1618 26012KT 9999 FEW023 TX16/1520Z TNM03/1610Z
BECMG 1523/1601 07006KT
TEMPO 1605/1609 3000E VCFG
BECMG 1612/1614 12005KT

Example: see airport list